Time;durP1;ratioP1;P1;durP2;ratioP2;P2;SDS_P1;SDS_P2;PMS_P1;PMS_P2;Temp;Humidity;BMP_temperature;BMP_pressure;BME280_temperature;BME280_humidity;BME280_pressure;Samples;Min_cycle;Max_cycle;Signal;HPM_P1;HPM_P2
2022/06/17 00:02:49;;;;;;;5.00;3.30;;;17.90;99.90;;;;;;21071223;28;20035;-78
2022/06/17 00:12:51;;;;;;;5.63;3.07;;;17.50;99.90;;;;;;21107807;28;20476;-78
2022/06/17 00:22:51;;;;;;;8.38;3.90;;;17.20;99.90;;;;;;21094339;28;20043;-77
2022/06/17 00:32:54;;;;;;;8.67;3.30;;;16.70;99.90;;;;;;21074654;28;20036;-78
2022/06/17 00:42:56;;;;;;;4.40;3.20;;;16.80;99.90;;;;;;21092500;28;20039;-77
2022/06/17 00:53:16;;;;;;;5.40;3.05;;;17.00;99.90;;;;;;21069126;28;20036;-77
2022/06/17 01:03:22;;;;;;;9.55;2.90;;;17.80;99.90;;;;;;21087135;28;20142;-78
2022/06/17 01:13:23;;;;;;;4.93;2.80;;;18.20;99.90;;;;;;21089151;28;20406;-77
2022/06/17 01:23:26;;;;;;;2.97;2.50;;;17.90;99.90;;;;;;21071621;28;20048;-77
2022/06/17 01:33:33;;;;;;;5.75;3.20;;;17.90;99.90;;;;;;21086325;28;20032;-77
2022/06/17 01:43:39;;;;;;;7.88;3.25;;;17.70;99.90;;;;;;21086856;28;20101;-77
2022/06/17 01:53:46;;;;;;;6.15;2.80;;;17.30;99.90;;;;;;21065372;28;20047;-77
2022/06/17 02:03:54;;;;;;;3.55;2.75;;;16.80;99.90;;;;;;21048067;28;20040;-77
2022/06/17 02:13:55;;;;;;;5.80;2.70;;;16.70;99.90;;;;;;21068952;28;20436;-77
2022/06/17 02:24:03;;;;;;;5.93;2.83;;;16.70;99.90;;;;;;21073439;28;20043;-78
2022/06/17 02:34:06;;;;;;;10.38;2.80;;;16.50;99.90;;;;;;21089180;28;20379;-78
2022/06/17 02:44:28;;;;;;;9.25;3.00;;;16.40;99.90;;;;;;21074080;28;20036;-78
2022/06/17 02:54:36;;;;;;;4.47;2.58;;;16.10;99.90;;;;;;21072076;28;20040;-78
2022/06/17 03:04:41;;;;;;;6.90;2.97;;;15.80;99.90;;;;;;21067257;28;20112;-77
2022/06/17 03:14:42;;;;;;;4.38;2.58;;;15.00;99.90;;;;;;21068752;28;20040;-78
2022/06/17 03:25:13;;;;;;;4.70;2.90;;;15.20;99.90;;;;;;21089162;28;20039;-78
2022/06/17 03:35:20;;;;;;;8.15;2.70;;;14.90;99.90;;;;;;21061265;28;20474;-77
2022/06/17 03:45:27;;;;;;;2.88;2.53;;;14.70;99.90;;;;;;21079325;28;20044;-77
2022/06/17 03:55:29;;;;;;;8.73;2.92;;;14.40;99.90;;;;;;21078354;28;20497;-77
2022/06/17 04:05:32;;;;;;;6.85;2.60;;;14.70;99.90;;;;;;21079240;28;20040;-77
2022/06/17 04:15:58;;;;;;;4.85;2.90;;;15.10;99.90;;;;;;21077939;28;20464;-77
2022/06/17 04:26:04;;;;;;;5.70;3.30;;;15.30;99.90;;;;;;21084424;28;20047;-77
2022/06/17 04:36:19;;;;;;;7.30;3.50;;;15.50;99.90;;;;;;21074898;28;20032;-75
2022/06/17 04:46:36;;;;;;;5.60;3.17;;;15.70;99.90;;;;;;21067357;28;20036;-75
2022/06/17 04:56:45;;;;;;;7.43;3.38;;;16.10;99.90;;;;;;21075589;28;20043;-76
2022/06/17 05:07:10;;;;;;;7.80;3.78;;;16.70;99.90;;;;;;21082298;28;20452;-77
2022/06/17 05:17:11;;;;;;;5.53;3.75;;;17.20;99.90;;;;;;21064823;28;20395;-76
2022/06/17 05:27:12;;;;;;;5.68;3.75;;;17.50;99.90;;;;;;21063730;28;20047;-78
2022/06/17 05:37:14;;;;;;;6.95;4.72;;;18.00;99.90;;;;;;21063020;28;20472;-77
2022/06/17 05:47:17;;;;;;;7.63;4.85;;;18.10;99.90;;;;;;21061429;28;20036;-77
2022/06/17 05:57:31;;;;;;;12.60;5.35;;;18.20;99.90;;;;;;21106515;28;20612;-78
2022/06/17 06:07:33;;;;;;;9.93;4.80;;;18.50;99.90;;;;;;21129113;28;20036;-77
2022/06/17 06:17:34;;;;;;;7.75;4.63;;;18.80;99.90;;;;;;21127731;28;20036;-78
2022/06/17 06:27:35;;;;;;;11.87;4.80;;;18.90;99.90;;;;;;21144019;28;20516;-77
2022/06/17 06:37:36;;;;;;;9.40;4.60;;;19.00;99.90;;;;;;21168688;28;20059;-77
2022/06/17 06:47:37;;;;;;;6.80;4.20;;;19.20;99.90;;;;;;21140460;28;20035;-77
2022/06/17 06:57:53;;;;;;;9.55;4.07;;;19.00;99.90;;;;;;21117822;28;20517;-77
2022/06/17 07:07:55;;;;;;;6.13;3.97;;;19.00;99.90;;;;;;21140590;28;20044;-78
2022/06/17 07:18:03;;;;;;;6.60;3.77;;;20.20;99.90;;;;;;21123719;28;20127;-77
2022/06/17 07:28:05;;;;;;;6.57;3.72;;;20.60;99.90;;;;;;21143689;28;20039;-77
2022/06/17 07:48:29;;;;;;;6.78;3.15;;;22.60;99.90;;;;;;21169005;28;20039;-77
2022/06/17 07:58:30;;;;;;;;;;;23.00;99.90;;;;;;21128403;28;20047;-77
2022/06/17 08:08:33;;;;;;;2.95;2.00;;;24.00;99.90;;;;;;21145791;28;19912;-77
2022/06/17 08:18:36;;;;;;;3.80;2.30;;;23.90;99.90;;;;;;21165310;28;20039;-77
2022/06/17 08:28:38;;;;;;;5.13;2.28;;;24.80;99.90;;;;;;21171334;28;20036;-77
2022/06/17 08:38:54;;;;;;;3.67;1.85;;;25.20;99.90;;;;;;21170729;28;20035;-77
2022/06/17 08:49:12;;;;;;;3.47;2.10;;;25.60;99.90;;;;;;21163034;28;20039;-77
2022/06/17 08:59:25;;;;;;;5.18;2.10;;;26.30;99.90;;;;;;21021835;28;20398;-78
2022/06/17 09:09:52;;;;;;;6.43;2.05;;;27.30;99.90;;;;;;21052657;28;20073;-77
2022/06/17 09:19:58;;;;;;;5.88;2.13;;;27.50;99.90;;;;;;21000660;28;20044;-76
2022/06/17 09:30:11;;;;;;;2.72;1.75;;;28.20;99.90;;;;;;20997402;28;20047;-76
2022/06/17 09:40:38;;;;;;;4.45;1.95;;;28.50;99.90;;;;;;20998000;28;20052;-76
2022/06/17 09:50:48;;;;;;;5.60;2.30;;;29.10;99.90;;;;;;21003080;28;20526;-76
2022/06/17 10:00:54;;;;;;;7.50;2.20;;;29.60;99.90;;;;;;20996756;28;20443;-76
2022/06/17 10:11:43;;;;;;;2.63;1.63;;;30.30;99.90;;;;;;20978034;28;20040;-78
2022/06/17 10:21:49;;;;;;;5.78;2.10;;;30.50;98.20;;;;;;20959230;28;20040;-78
2022/06/17 10:31:51;;;;;;;2.95;1.52;;;31.20;95.80;;;;;;20976211;28;20047;-77
2022/06/17 10:41:52;;;;;;;2.47;1.50;;;30.60;96.00;;;;;;20993328;28;20043;-78
2022/06/17 10:51:54;;;;;;;7.15;1.80;;;31.90;94.70;;;;;;20993081;28;20044;-77
2022/06/17 11:01:56;;;;;;;5.38;1.50;;;31.40;96.10;;;;;;20992088;28;20135;-78
2022/06/17 11:12:04;;;;;;;2.83;1.38;;;31.90;93.40;;;;;;20991382;28;20449;-78
2022/06/17 11:22:06;;;;;;;3.40;1.60;;;32.80;93.30;;;;;;20991161;28;20040;-77
2022/06/17 11:32:33;;;;;;;3.10;1.13;;;32.80;90.40;;;;;;20990604;28;20616;-77
2022/06/17 11:42:42;;;;;;;2.35;1.23;;;32.40;88.90;;;;;;21058429;22;20055;-76
2022/06/17 11:52:44;;;;;;;4.13;1.35;;;31.40;85.20;;;;;;21078401;28;20044;-76
2022/06/17 12:02:56;;;;;;;5.97;1.40;;;32.40;90.60;;;;;;21084857;28;20120;-76
2022/06/17 12:13:17;;;;;;;3.97;1.35;;;31.90;87.90;;;;;;21058131;28;20032;-77
2022/06/17 12:23:30;;;;;;;3.88;1.30;;;32.40;85.90;;;;;;20994421;28;20494;-76
2022/06/17 12:34:09;;;;;;;4.35;1.40;;;32.10;86.20;;;;;;21076776;28;20545;-77
2022/06/17 12:44:21;;;;;;;4.38;1.52;;;32.60;88.30;;;;;;21019613;28;20097;-77
2022/06/17 12:54:21;;;;;;;2.10;1.00;;;33.50;81.10;;;;;;21058547;28;20047;-77
2022/06/17 13:04:34;;;;;;;4.70;1.60;;;33.10;86.70;;;;;;21065831;28;20043;-77
2022/06/17 13:14:53;;;;;;;2.83;1.42;;;33.90;81.30;;;;;;21063298;28;20040;-77
2022/06/17 13:25:01;;;;;;;4.18;1.70;;;33.30;83.90;;;;;;21053149;28;20043;-77
2022/06/17 13:35:42;;;;;;;5.20;2.50;;;32.70;82.30;;;;;;21081557;28;20399;-77
2022/06/17 13:45:53;;;;;;;3.05;1.60;;;32.50;85.60;;;;;;20681161;28;20061;-77
2022/06/17 13:56:15;;;;;;;2.83;1.48;;;32.70;86.40;;;;;;20718468;28;20519;-77
2022/06/17 14:06:16;;;;;;;2.22;1.35;;;33.30;79.80;;;;;;20704371;28;20412;-77
2022/06/17 14:16:30;;;;;;;13.80;2.38;;;32.30;84.50;;;;;;20988314;28;20040;-77
2022/06/17 14:26:43;;;;;;;2.47;1.15;;;32.50;82.50;;;;;;21040216;28;20062;-77
2022/06/17 14:36:52;;;;;;;2.58;1.42;;;33.50;82.20;;;;;;21062920;28;20052;-77
2022/06/17 14:47:17;;;;;;;8.47;1.53;;;33.80;83.30;;;;;;21045205;28;20043;-77
2022/06/17 14:57:19;;;;;;;5.05;1.40;;;32.90;82.70;;;;;;21074606;28;20032;-77
2022/06/17 15:07:23;;;;;;;5.20;1.52;;;33.50;80.90;;;;;;21052541;28;20048;-77
2022/06/17 15:18:10;;;;;;;4.55;1.58;;;33.20;81.60;;;;;;21052879;28;20046;-75
2022/06/17 15:28:23;;;;;;;4.22;1.60;;;32.80;81.10;;;;;;21053032;28;20048;-75
2022/06/17 15:38:27;;;;;;;3.17;1.70;;;32.00;83.40;;;;;;21054106;28;20056;-77
2022/06/17 15:48:32;;;;;;;2.40;1.70;;;32.10;84.50;;;;;;21042708;28;20036;-77
2022/06/17 15:58:36;;;;;;;4.97;1.80;;;31.90;85.30;;;;;;21053706;28;20067;-76
2022/06/17 16:08:45;;;;;;;3.05;1.45;;;31.00;85.40;;;;;;21053430;28;20044;-75
2022/06/17 16:18:47;;;;;;;2.03;1.63;;;30.40;88.40;;;;;;21055270;28;20093;-76
2022/06/17 16:28:49;;;;;;;8.05;1.70;;;30.90;86.00;;;;;;21056575;28;20039;-76
2022/06/17 16:38:56;;;;;;;3.83;1.95;;;31.30;85.50;;;;;;21044727;28;20065;-76
2022/06/17 16:48:59;;;;;;;6.97;1.52;;;31.30;82.10;;;;;;21070584;28;20031;-76
2022/06/17 16:59:02;;;;;;;6.32;1.80;;;30.90;86.50;;;;;;21081451;28;20393;-75
2022/06/17 17:09:03;;;;;;;4.00;1.27;;;30.70;83.50;;;;;;21082380;28;20044;-76
2022/06/17 17:19:04;;;;;;;7.50;2.42;;;30.60;86.40;;;;;;21083593;28;20032;-76
2022/06/17 17:29:05;;;;;;;3.53;1.77;;;30.60;84.60;;;;;;21082795;28;20131;-76
2022/06/17 17:39:06;;;;;;;7.22;2.20;;;30.80;84.50;;;;;;21078198;22;20044;-77
2022/06/17 17:49:10;;;;;;;2.45;1.40;;;30.50;87.70;;;;;;21001075;22;20521;-78
2022/06/17 17:59:26;;;;;;;3.92;1.60;;;30.60;85.10;;;;;;20978449;28;20044;-77
2022/06/17 18:09:27;;;;;;;3.55;1.67;;;30.90;90.80;;;;;;20995533;28;20090;-78
2022/06/17 18:19:27;;;;;;;1.88;1.52;;;30.80;93.60;;;;;;20994332;28;20430;-78
2022/06/17 18:29:33;;;;;;;3.70;1.90;;;31.10;93.70;;;;;;20975644;28;20052;-78
2022/06/17 18:39:33;;;;;;;3.58;1.95;;;29.40;96.60;;;;;;20992879;28;20037;-78
2022/06/17 18:49:34;;;;;;;4.43;1.90;;;27.90;97.60;;;;;;20992256;28;20399;-78
2022/06/17 18:59:36;;;;;;;8.73;2.08;;;26.50;99.40;;;;;;20991239;28;20278;-78
2022/06/17 19:20:00;;;;;;;3.25;2.03;;;25.10;99.90;;;;;;20998087;28;20506;-79
2022/06/17 19:30:00;;;;;;;2.20;1.98;;;24.00;99.90;;;;;;21023917;28;20037;-79
2022/06/17 19:40:02;;;;;;;4.43;2.60;;;24.40;99.90;;;;;;21005949;28;20048;-79
2022/06/17 19:50:03;;;;;;;3.05;2.28;;;24.20;99.90;;;;;;21003508;28;20767;-77
2022/06/17 20:00:06;;;;;;;9.27;2.33;;;23.90;99.90;;;;;;21026510;28;20037;-77
2022/06/17 20:10:13;;;;;;;4.38;2.63;;;24.10;99.90;;;;;;21024995;28;20044;-78
2022/06/17 20:20:14;;;;;;;3.88;2.28;;;23.60;99.90;;;;;;21038044;28;20033;-78
2022/06/17 20:30:20;;;;;;;4.55;2.85;;;23.20;99.90;;;;;;21036840;28;20052;-80
2022/06/17 20:40:34;;;;;;;2.55;2.17;;;22.90;99.90;;;;;;21035685;28;20100;-78
2022/06/17 20:50:34;;;;;;;4.43;2.30;;;22.90;99.90;;;;;;21034187;28;20380;-77
2022/06/17 21:00:48;;;;;;;3.87;2.20;;;22.60;99.90;;;;;;21032957;28;20074;-78
2022/06/17 21:10:53;;;;;;;4.47;2.70;;;22.30;99.90;;;;;;21032663;28;20051;-79
2022/06/17 21:20:56;;;;;;;5.43;2.30;;;22.00;99.90;;;;;;21033434;28;20032;-78
2022/06/17 21:30:58;;;;;;;4.72;3.10;;;21.80;99.90;;;;;;21032344;28;20040;-78
2022/06/17 21:41:01;;;;;;;4.63;2.50;;;21.60;99.90;;;;;;21031234;28;20043;-79
2022/06/17 21:51:06;;;;;;;6.13;2.78;;;21.10;99.90;;;;;;21025645;28;20049;-79
2022/06/17 22:01:07;;;;;;;3.95;2.63;;;20.90;99.90;;;;;;21037223;28;20091;-79
2022/06/17 22:21:35;;;;;;;8.98;2.67;;;19.90;99.90;;;;;;20992689;28;20047;-77
2022/06/17 22:31:36;;;;;;;4.10;2.20;;;19.80;99.90;;;;;;20973560;28;20041;-77
2022/06/17 22:41:37;;;;;;;3.87;2.80;;;19.60;99.90;;;;;;21004114;28;20098;-76
2022/06/17 22:51:38;;;;;;;8.57;2.60;;;19.10;99.90;;;;;;21005012;28;20072;-77
2022/06/17 23:01:39;;;;;;;4.57;3.13;;;19.00;99.90;;;;;;20998337;28;20032;-76
2022/06/17 23:11:41;;;;;;;6.05;3.00;;;18.80;99.90;;;;;;20965451;28;20487;-76
2022/06/17 23:21:47;;;;;;;4.88;2.60;;;18.90;99.90;;;;;;20964478;28;20139;-77
2022/06/17 23:31:49;;;;;;;4.60;2.90;;;18.70;99.90;;;;;;20975694;28;20410;-76
2022/06/17 23:41:49;;;;;;;8.80;2.88;;;18.10;99.90;;;;;;21046553;22;20055;-77
2022/06/17 23:51:52;;;;;;;3.67;2.57;;;17.60;99.90;;;;;;21124844;28;20040;-77
